createdAt,value
2023-02-03T00:00:40.085Z,102552.72
2023-02-03T00:03:07.155Z,102557.06
2023-02-03T00:05:34.415Z,102570.88
2023-02-03T00:08:02.181Z,102570.91
2023-02-03T00:10:28.699Z,102570.91
2023-02-03T00:12:56.304Z,102580.41
2023-02-03T00:15:23.352Z,102577.81
2023-02-03T00:17:49.783Z,102575.22
2023-02-03T00:20:16.385Z,102577.81
2023-02-03T00:22:42.756Z,102577.00
2023-02-03T00:25:09.509Z,102565.75
2023-02-03T00:27:36.008Z,102580.44
2023-02-03T00:30:02.615Z,102585.59
2023-02-03T00:32:29.348Z,102589.94
2023-02-03T00:34:55.781Z,102581.25
2023-02-03T00:37:23.152Z,102588.09
2023-02-03T00:39:50.234Z,102598.47
2023-02-03T00:42:16.839Z,102573.34
2023-02-03T00:44:43.287Z,102591.56
2023-02-03T00:47:09.760Z,102587.22
2023-02-03T00:49:36.142Z,102574.22
2023-02-03T00:52:02.798Z,102590.69
2023-02-03T00:54:29.219Z,102590.66
2023-02-03T00:56:55.685Z,102575.94
2023-02-03T00:59:22.069Z,102569.00
2023-02-03T01:01:49.934Z,102573.34
2023-02-03T01:04:16.379Z,102569.84
2023-02-03T01:06:42.816Z,102571.59
2023-02-03T01:09:09.214Z,102565.56
2023-02-03T01:11:35.730Z,102554.31
2023-02-03T01:14:02.129Z,102563.00
2023-02-03T01:16:31.059Z,102568.19
2023-02-03T01:18:57.654Z,102571.59
2023-02-03T01:21:26.080Z,102572.50
2023-02-03T01:23:53.391Z,102575.09
2023-02-03T01:26:21.851Z,102575.97
2023-02-03T01:28:56.018Z,102560.38
2023-02-03T01:31:29.230Z,102543.97
2023-02-03T01:33:56.970Z,102531.00
2023-02-03T01:36:25.843Z,102528.34
2023-02-03T01:38:53.318Z,102529.25
2023-02-03T01:41:23.456Z,102527.50
2023-02-03T01:43:53.113Z,102533.56
2023-02-03T01:46:25.288Z,102524.06
2023-02-03T01:48:59.972Z,102532.75
2023-02-03T01:51:26.494Z,102535.31
2023-02-03T01:53:54.004Z,102548.34
2023-02-03T01:56:21.872Z,102537.09
2023-02-03T01:58:50.586Z,102523.25
2023-02-03T02:01:19.492Z,102511.94
2023-02-03T02:03:53.064Z,102503.28
2023-02-03T02:06:19.630Z,102498.94
2023-02-03T02:08:52.107Z,102495.50
2023-02-03T02:11:21.318Z,102493.81
2023-02-03T02:13:50.542Z,102499.84
2023-02-03T02:16:27.332Z,102514.53
2023-02-03T02:18:53.721Z,102511.09
2023-02-03T02:24:14.967Z,102524.91
2023-02-03T02:26:57.036Z,102518.81
2023-02-03T02:30:06.553Z,102536.13
2023-02-03T02:32:41.166Z,102525.75
2023-02-03T02:35:29.363Z,102516.25
2023-02-03T02:38:05.201Z,102513.63
2023-02-03T02:40:47.022Z,102526.63
2023-02-03T02:43:23.781Z,102521.41
2023-02-03T02:45:54.228Z,102522.25
2023-02-03T02:48:22.944Z,102513.59
2023-02-03T02:50:53.799Z,102506.72
2023-02-03T02:53:24.637Z,102498.91
2023-02-03T02:55:53.554Z,102486.75
2023-02-03T02:58:21.706Z,102498.00
2023-02-03T03:00:48.374Z,102493.66
2023-02-03T03:03:16.277Z,102484.13
2023-02-03T03:05:48.358Z,102472.91
2023-02-03T03:08:17.348Z,102472.03
2023-02-03T03:10:44.863Z,102484.97
2023-02-03T03:13:19.877Z,102486.63
2023-02-03T03:15:48.222Z,102492.69
2023-02-03T03:18:20.034Z,102482.28
2023-02-03T03:20:48.243Z,102483.91
2023-02-03T03:23:24.985Z,102477.81
2023-02-03T03:26:02.240Z,102473.50
2023-02-03T03:28:40.356Z,102477.81
2023-02-03T03:31:06.872Z,102475.22
2023-02-03T03:33:33.481Z,102481.25
2023-02-03T03:36:18.347Z,102479.50
2023-02-03T03:38:54.564Z,102490.81
2023-02-03T03:41:31.509Z,102491.59
2023-02-03T03:44:03.330Z,102493.28
2023-02-03T03:46:44.356Z,102496.75
2023-02-03T03:49:12.767Z,102497.63
2023-02-03T03:51:47.922Z,102508.03
2023-02-03T03:54:22.527Z,102507.13
2023-02-03T03:57:05.110Z,102507.94
2023-02-03T03:59:34.336Z,102532.19
2023-02-03T04:02:04.957Z,102513.13
2023-02-03T04:04:34.335Z,102520.06
2023-02-03T04:07:00.735Z,102522.66
2023-02-03T04:09:27.167Z,102510.47
2023-02-03T04:12:02.643Z,102509.59
2023-02-03T04:14:35.015Z,102507.81
2023-02-03T04:17:01.948Z,102506.94
2023-02-03T04:19:28.368Z,102511.19
2023-02-03T04:21:54.937Z,102518.97
2023-02-03T04:24:21.539Z,102513.78
2023-02-03T04:26:48.026Z,102508.53
2023-02-03T04:29:14.411Z,102510.19
2023-02-03T04:31:41.036Z,102489.38
2023-02-03T04:34:07.541Z,102514.47
2023-02-03T04:36:34.039Z,102501.47
2023-02-03T04:39:00.435Z,102510.13
2023-02-03T04:41:26.867Z,102511.75
2023-02-03T04:43:53.258Z,102500.44
2023-02-03T04:46:19.753Z,102498.69
2023-02-03T04:48:46.158Z,102522.03
2023-02-03T04:51:12.700Z,102508.13
2023-02-03T04:53:39.130Z,102503.72
2023-02-03T04:56:05.690Z,102502.03
2023-02-03T05:01:30.898Z,102514.13
2023-02-03T05:03:57.316Z,102496.78
2023-02-03T05:06:28.878Z,102495.91
2023-02-03T05:08:55.634Z,102481.16
2023-02-03T05:11:22.598Z,102481.16
2023-02-03T05:13:48.996Z,102488.94
2023-02-03T05:16:15.900Z,102500.25
2023-02-03T05:18:42.408Z,102510.66
2023-02-03T05:21:09.046Z,102518.47
2023-02-03T05:23:36.724Z,102512.41
2023-02-03T05:26:03.782Z,102506.38
2023-02-03T05:28:30.269Z,102500.25
2023-02-03T05:31:01.495Z,102495.91
2023-02-03T05:33:29.011Z,102494.22
2023-02-03T05:35:55.540Z,102509.81
2023-02-03T05:38:23.258Z,102509.81
2023-02-03T05:41:08.680Z,102491.63
2023-02-03T05:43:35.253Z,102514.13
2023-02-03T05:46:02.663Z,102501.16
2023-02-03T05:48:29.337Z,102513.31
2023-02-03T05:50:55.888Z,102509.81
2023-02-03T05:53:22.312Z,102504.63
2023-02-03T05:55:48.891Z,102502.09
2023-02-03T05:58:15.376Z,102502.97
2023-02-03T06:00:41.746Z,102507.22
2023-02-03T06:03:08.441Z,102492.53
2023-02-03T06:05:35.401Z,102502.97
2023-02-03T06:08:01.856Z,102493.44
2023-02-03T06:10:28.651Z,102512.47
2023-02-03T06:12:55.332Z,102496.84
2023-02-03T06:15:21.833Z,102490.84
2023-02-03T06:17:49.086Z,102508.19
2023-02-03T06:20:18.886Z,102498.66
2023-02-03T06:22:45.760Z,102501.22
2023-02-03T06:25:14.268Z,102513.38
2023-02-03T06:27:41.121Z,102515.13
2023-02-03T06:30:08.461Z,102512.53
2023-02-03T06:32:34.970Z,102516.00
2023-02-03T06:35:01.374Z,102512.53
2023-02-03T06:37:27.815Z,102513.38
2023-02-03T06:39:54.205Z,102511.63
2023-02-03T06:42:20.614Z,102502.13
2023-02-03T06:44:46.994Z,102510.84
2023-02-03T06:47:13.402Z,102510.00
2023-02-03T06:49:39.840Z,102509.16
2023-02-03T06:52:06.273Z,102526.44
2023-02-03T06:54:33.529Z,102518.66
2023-02-03T06:56:59.989Z,102521.25
2023-02-03T06:59:26.409Z,102543.78
2023-02-03T07:01:53.124Z,102541.19
2023-02-03T07:04:19.572Z,102542.88
2023-02-03T07:06:45.968Z,102549.84
2023-02-03T07:09:12.789Z,102544.63
2023-02-03T07:11:39.240Z,102561.06
2023-02-03T07:14:05.769Z,102556.72
2023-02-03T07:16:34.167Z,102554.97
2023-02-03T07:19:00.556Z,102559.31
2023-02-03T07:21:26.952Z,102569.78
2023-02-03T07:23:53.712Z,102560.19
2023-02-03T07:26:22.950Z,102559.31
2023-02-03T07:28:54.519Z,102555.88
2023-02-03T07:31:21.077Z,102567.97
2023-02-03T07:33:48.058Z,102569.72
2023-02-03T07:36:14.452Z,102574.06
2023-02-03T07:38:40.845Z,102569.72
2023-02-03T07:41:07.336Z,102557.56
2023-02-03T07:43:33.894Z,102561.06
2023-02-03T07:46:01.729Z,102546.34
2023-02-03T07:48:28.252Z,102553.28
2023-02-03T07:50:54.877Z,102565.38
2023-02-03T07:53:21.458Z,102563.63
2023-02-03T07:55:47.935Z,102574.91
2023-02-03T07:58:15.056Z,102587.81
2023-02-03T08:00:41.448Z,102573.09
2023-02-03T08:03:07.975Z,102584.34
2023-02-03T08:05:34.400Z,102576.56
2023-02-03T08:08:00.812Z,102580.84
2023-02-03T08:10:27.810Z,102595.53
2023-02-03T08:12:55.791Z,102589.50
2023-02-03T08:15:22.286Z,102587.69
2023-02-03T08:17:49.715Z,102590.28
2023-02-03T08:20:17.303Z,102608.47
2023-02-03T08:22:44.094Z,102614.53
2023-02-03T08:25:10.669Z,102604.09
2023-02-03T08:27:37.945Z,102616.19
2023-02-03T08:30:05.419Z,102613.56
2023-02-03T08:32:33.450Z,102619.63
2023-02-03T08:35:00.008Z,102617.81
2023-02-03T08:37:26.539Z,102615.22
2023-02-03T08:39:53.873Z,102609.16
2023-02-03T08:42:20.444Z,102608.25
2023-02-03T08:44:47.031Z,102621.22
2023-02-03T08:47:13.561Z,102627.31
2023-02-03T08:49:40.110Z,102635.06
2023-02-03T08:52:08.088Z,102616.81
2023-02-03T08:54:34.950Z,102620.25
2023-02-03T08:57:01.483Z,102629.72
2023-02-03T08:59:28.017Z,102632.28
2023-02-03T09:01:55.038Z,102627.06
2023-02-03T09:04:24.512Z,102632.22
2023-02-03T09:06:54.549Z,102634.78
2023-02-03T09:09:22.051Z,102631.25
2023-02-03T09:11:48.621Z,102639.91
2023-02-03T09:14:15.085Z,102645.06
2023-02-03T09:16:41.561Z,102644.13
2023-02-03T09:19:08.061Z,102645.78
2023-02-03T09:21:40.252Z,102639.72
2023-02-03T09:24:12.770Z,102657.03
2023-02-03T09:26:39.255Z,102639.66
2023-02-03T09:29:05.895Z,102660.41
2023-02-03T09:31:32.384Z,102636.94
2023-02-03T09:33:59.980Z,102646.47
2023-02-03T09:36:26.633Z,102651.66
2023-02-03T09:38:53.289Z,102649.94
2023-02-03T09:41:44.334Z,102643.84
2023-02-03T09:44:52.814Z,102650.75
2023-02-03T09:47:24.990Z,102657.66
2023-02-03T09:49:56.799Z,102675.00
2023-02-03T09:52:25.107Z,102669.75
2023-02-03T09:55:25.657Z,102669.75
2023-02-03T09:58:25.035Z,102659.34
2023-02-03T10:00:59.575Z,102667.13
2023-02-03T10:03:48.008Z,102679.19
2023-02-03T10:06:31.613Z,102680.03
2023-02-03T10:09:27.266Z,102685.19
2023-02-03T10:12:15.406Z,102688.63
2023-02-03T10:15:05.721Z,102681.66
2023-02-03T10:18:21.755Z,102699.88
2023-02-03T10:20:53.339Z,102698.94
2023-02-03T10:23:30.438Z,102687.59
2023-02-03T10:25:59.109Z,102681.53
2023-02-03T10:28:39.489Z,102691.00
2023-02-03T10:31:19.251Z,102685.78
2023-02-03T10:33:47.176Z,102697.88
2023-02-03T10:36:22.039Z,102708.28
2023-02-03T10:38:48.452Z,102711.75
2023-02-03T10:41:18.065Z,102705.63
2023-02-03T10:43:51.721Z,102711.69
2023-02-03T10:46:30.664Z,102750.69
2023-02-03T10:48:57.321Z,102717.69
2023-02-03T10:51:25.713Z,102719.38
2023-02-03T10:53:53.704Z,102707.22
2023-02-03T10:56:27.029Z,102716.69
2023-02-03T10:58:56.639Z,102711.44
2023-02-03T11:01:26.400Z,102713.19
2023-02-03T11:04:03.219Z,102714.88
2023-02-03T11:06:31.397Z,102725.31
2023-02-03T11:08:58.239Z,102727.00
2023-02-03T11:11:31.562Z,102740.06
2023-02-03T11:14:03.852Z,102725.38
2023-02-03T11:16:33.498Z,102740.09
2023-02-03T11:19:03.002Z,102735.72
2023-02-03T11:21:32.138Z,102731.41
2023-02-03T11:24:17.515Z,102725.31
2023-02-03T11:26:53.964Z,102727.94
2023-02-03T11:29:29.295Z,102727.97
2023-02-03T11:31:58.368Z,102727.97
2023-02-03T11:34:29.223Z,102712.34
2023-02-03T11:36:55.783Z,102734.88
2023-02-03T11:39:26.504Z,102737.41
2023-02-03T11:41:53.767Z,102720.88
2023-02-03T11:44:26.331Z,102722.63
2023-02-03T11:47:17.701Z,102726.09
2023-02-03T11:50:06.299Z,102720.03
2023-02-03T11:52:47.795Z,102725.19
2023-02-03T11:55:32.788Z,102717.31
2023-02-03T11:58:10.764Z,102727.78
2023-02-03T12:00:51.937Z,102727.78
2023-02-03T12:03:57.811Z,102709.63
2023-02-03T12:06:33.630Z,102717.44
2023-02-03T12:09:25.647Z,102716.59
2023-02-03T12:12:19.760Z,102732.28
2023-02-03T12:15:05.579Z,102737.66
2023-02-03T12:17:47.164Z,102729.91
2023-02-03T12:20:43.128Z,102754.25
2023-02-03T12:23:38.712Z,102743.00
2023-02-03T12:26:24.064Z,102739.53
2023-02-03T12:28:56.368Z,102752.63
2023-02-03T12:31:33.685Z,102762.28
2023-02-03T12:34:06.276Z,102768.41
2023-02-03T12:36:39.964Z,102771.06
2023-02-03T12:39:25.497Z,102763.31
2023-02-03T12:42:01.757Z,102772.03
2023-02-03T12:44:59.409Z,102779.94
2023-02-03T12:47:25.849Z,102780.91
2023-02-03T12:50:07.080Z,102775.75
2023-02-03T12:52:42.032Z,102790.53
2023-02-03T12:55:32.458Z,102798.38
2023-02-03T12:58:03.131Z,102808.78
2023-02-03T13:00:48.050Z,102802.72
2023-02-03T13:03:39.442Z,102813.13
2023-02-03T13:06:22.473Z,102815.69
2023-02-03T13:09:01.515Z,102805.22
2023-02-03T13:11:37.453Z,102812.19
2023-02-03T13:14:15.392Z,102826.00
2023-02-03T13:16:45.833Z,102806.06
2023-02-03T13:19:29.188Z,102812.91
2023-02-03T13:21:55.621Z,102809.41
2023-02-03T13:24:26.378Z,102808.53
2023-02-03T13:27:28.386Z,102799.88
2023-02-03T13:30:12.104Z,102814.56
2023-02-03T13:33:30.866Z,102825.03
2023-02-03T13:36:06.019Z,102812.81
2023-02-03T13:38:44.817Z,102815.38
2023-02-03T13:41:46.216Z,102814.47
2023-02-03T13:44:16.672Z,102812.75
2023-02-03T13:46:46.971Z,102809.25
2023-02-03T13:49:24.518Z,102823.16
2023-02-03T13:51:51.401Z,102807.59
2023-02-03T13:54:27.646Z,102812.81
2023-02-03T13:57:00.056Z,102812.81
2023-02-03T13:59:31.917Z,102814.53
2023-02-03T14:02:19.968Z,102819.72
2023-02-03T14:04:46.623Z,102800.69
2023-02-03T14:07:34.959Z,102799.88
2023-02-03T14:10:16.092Z,102813.72
2023-02-03T14:12:51.478Z,102822.34
2023-02-03T14:15:26.273Z,102827.47
2023-02-03T14:17:52.922Z,102836.19
2023-02-03T14:20:25.233Z,102837.94
2023-02-03T14:23:06.850Z,102850.09
2023-02-03T14:25:58.740Z,102844.09
2023-02-03T14:28:38.966Z,102851.94
2023-02-03T14:31:22.842Z,102856.25
2023-02-03T14:33:51.263Z,102868.44
2023-02-03T14:36:36.061Z,102870.22
2023-02-03T14:39:24.122Z,102873.69
2023-02-03T14:42:03.677Z,102871.97
2023-02-03T14:45:04.300Z,102874.56
2023-02-03T14:47:33.700Z,102872.88
2023-02-03T14:50:15.368Z,102877.22
2023-02-03T14:53:23.354Z,102872.06
2023-02-03T14:56:13.544Z,102883.38
2023-02-03T14:58:48.965Z,102885.97
2023-02-03T15:01:37.110Z,102886.88
2023-02-03T15:04:12.642Z,102877.38
2023-02-03T15:06:45.293Z,102879.13
2023-02-03T15:09:36.883Z,102878.28
2023-02-03T15:12:15.769Z,102874.88
2023-02-03T15:14:42.211Z,102869.72
2023-02-03T15:17:26.867Z,102867.13
2023-02-03T15:19:54.398Z,102870.56
2023-02-03T15:22:23.735Z,102873.22
2023-02-03T15:24:56.204Z,102868.00
2023-02-03T15:27:28.247Z,102880.19
2023-02-03T15:29:57.327Z,102882.78
2023-02-03T15:32:27.964Z,102882.81
2023-02-03T15:34:58.208Z,102882.81
2023-02-03T15:37:37.459Z,102884.63
2023-02-03T15:40:35.582Z,102885.50
2023-02-03T15:43:09.064Z,102883.75
2023-02-03T15:45:49.235Z,102891.56
2023-02-03T15:48:23.809Z,102887.25
2023-02-03T15:50:55.493Z,102895.97
2023-02-03T15:53:46.935Z,102900.31
2023-02-03T15:56:21.914Z,102902.06
2023-02-03T15:58:49.517Z,102907.25
2023-02-03T16:01:23.672Z,102909.06
2023-02-03T16:03:52.833Z,102916.84
2023-02-03T16:06:28.301Z,102920.41
2023-02-03T16:08:55.476Z,102926.50
2023-02-03T16:11:29.544Z,102922.19
2023-02-03T16:13:57.692Z,102922.22
2023-02-03T16:16:37.913Z,102915.31
2023-02-03T16:19:12.487Z,102925.75
2023-02-03T16:21:59.796Z,102932.72
2023-02-03T16:24:32.349Z,102937.94
2023-02-03T16:27:27.041Z,102939.72
2023-02-03T16:30:25.252Z,102947.53
2023-02-03T16:33:28.481Z,102963.22
2023-02-03T16:36:14.591Z,102964.09
2023-02-03T16:39:09.237Z,102971.03
2023-02-03T16:41:56.301Z,102971.94
2023-02-03T16:44:41.707Z,102971.09
2023-02-03T16:47:43.530Z,102986.69
2023-02-03T16:50:39.556Z,102983.25
2023-02-03T16:53:12.500Z,102990.16
2023-02-03T16:55:39.383Z,102988.50
2023-02-03T16:58:06.033Z,102987.63
2023-02-03T17:00:32.822Z,102991.13
2023-02-03T17:03:03.535Z,102985.94
2023-02-03T17:05:30.270Z,102992.91
2023-02-03T17:07:56.946Z,102998.97
2023-02-03T17:10:23.445Z,103004.19
2023-02-03T17:12:51.871Z,103007.66
2023-02-03T17:15:18.437Z,103014.59
2023-02-03T17:17:46.056Z,103019.81
2023-02-03T17:20:12.890Z,103030.19
2023-02-03T17:22:39.345Z,103035.44
2023-02-03T17:25:06.127Z,103034.53
2023-02-03T17:27:32.604Z,103038.03
2023-02-03T17:29:59.065Z,103038.06
2023-02-03T17:32:25.565Z,103045.84
2023-02-03T17:34:52.016Z,103041.53
2023-02-03T17:37:18.482Z,103046.75
2023-02-03T17:53:24.871Z,103067.66
2023-02-03T17:55:51.338Z,103070.28
2023-02-03T17:58:17.773Z,103075.50
2023-02-03T18:00:44.354Z,103082.41
2023-02-03T18:03:10.775Z,103080.72
2023-02-03T18:05:38.287Z,103085.03
2023-02-03T18:08:12.364Z,103084.19
2023-02-03T18:10:43.378Z,103089.38
2023-02-03T18:13:09.867Z,103085.06
2023-02-03T18:15:38.512Z,103095.44
2023-02-03T18:18:05.088Z,103087.69
2023-02-03T18:20:31.648Z,103092.91
2023-02-03T18:22:58.210Z,103094.63
2023-02-03T18:25:24.628Z,103105.00
2023-02-03T18:27:52.238Z,103115.41
2023-02-03T18:30:21.607Z,103112.81
2023-02-03T18:32:52.523Z,103124.94
2023-02-03T18:35:19.194Z,103128.38
2023-02-03T18:37:45.747Z,103131.84
2023-02-03T18:40:12.480Z,103145.69
2023-02-03T18:42:39.034Z,103136.16
2023-02-03T18:45:06.461Z,103137.91
2023-02-03T18:47:33.624Z,103141.31
2023-02-03T18:50:00.120Z,103149.13
2023-02-03T18:52:27.419Z,103147.38
2023-02-03T18:54:53.923Z,103147.38
2023-02-03T18:57:22.572Z,103154.28
2023-02-03T18:59:49.403Z,103149.97
2023-02-03T19:02:15.901Z,103152.56
2023-02-03T19:04:42.345Z,103149.97
2023-02-03T19:07:08.794Z,103156.06
2023-02-03T19:09:35.429Z,103165.53
2023-02-03T19:12:03.015Z,103160.38
2023-02-03T19:14:29.808Z,103159.53
2023-02-03T19:16:56.400Z,103159.50
2023-02-03T19:19:22.867Z,103160.38
2023-02-03T19:21:51.779Z,103162.13
2023-02-03T19:24:19.367Z,103164.75
2023-02-03T19:26:46.458Z,103158.69
2023-02-03T19:29:12.915Z,103154.34
2023-02-03T19:31:39.548Z,103147.47
2023-02-03T19:34:06.013Z,103152.66
2023-02-03T19:36:32.463Z,103157.00
2023-02-03T19:38:58.873Z,103163.91
2023-02-03T19:41:26.267Z,103173.44
2023-02-03T19:43:52.765Z,103184.69
2023-02-03T19:46:21.644Z,103184.69
2023-02-03T19:48:48.705Z,103194.19
2023-02-03T19:51:15.221Z,103197.66
2023-02-03T19:53:41.673Z,103200.25
2023-02-03T19:56:08.115Z,103201.13
2023-02-03T19:58:34.623Z,103201.13
2023-02-03T20:01:01.038Z,103209.78
2023-02-03T20:03:27.450Z,103223.63
2023-02-03T20:05:54.269Z,103211.50
2023-02-03T20:08:20.742Z,103221.03
2023-02-03T20:10:47.272Z,103217.56
2023-02-03T20:13:14.090Z,103224.47
2023-02-03T20:15:40.839Z,103232.28
2023-02-03T20:18:07.951Z,103232.28
2023-02-03T20:20:35.193Z,103236.59
2023-02-03T20:23:01.673Z,103234.03
2023-02-03T20:25:28.147Z,103226.25
2023-02-03T20:27:56.969Z,103227.09
2023-02-03T20:30:23.670Z,103218.44
2023-02-03T20:32:50.270Z,103226.22
2023-02-03T20:35:17.341Z,103218.44
2023-02-03T20:37:43.819Z,103226.22
2023-02-03T20:40:16.797Z,103231.44
2023-02-03T20:42:43.373Z,103224.53
2023-02-03T20:45:13.901Z,103218.44
2023-02-03T20:47:40.484Z,103237.50
2023-02-03T20:50:40.524Z,103229.72
2023-02-03T20:53:13.590Z,103240.97
2023-02-03T20:55:40.054Z,103236.63
2023-02-03T20:58:39.985Z,103240.97
2023-02-03T21:01:20.774Z,103240.97
2023-02-03T21:04:07.345Z,103237.50
2023-02-03T21:06:35.169Z,103240.09
2023-02-03T21:09:14.181Z,103242.69
2023-02-03T21:11:41.151Z,103240.97
2023-02-03T21:14:29.562Z,103241.84
2023-02-03T21:16:56.088Z,103244.41
2023-02-03T21:19:33.683Z,103253.94
2023-02-03T21:22:14.851Z,103255.69
2023-02-03T21:24:45.493Z,103258.28
2023-02-03T21:27:33.065Z,103261.72
2023-02-03T21:30:03.262Z,103260.88
2023-02-03T21:32:40.152Z,103259.16
2023-02-03T21:35:29.810Z,103271.25
2023-02-03T21:38:04.280Z,103270.41
2023-02-03T21:40:35.004Z,103260.00
2023-02-03T21:43:03.354Z,103267.78
2023-02-03T21:45:42.874Z,103262.59
2023-02-03T21:48:32.030Z,103266.91
2023-02-03T21:51:04.754Z,103273.84
2023-02-03T21:53:35.892Z,103279.06
2023-02-03T21:56:17.015Z,103274.72
2023-02-03T21:58:44.835Z,103275.59
2023-02-03T22:01:16.476Z,103275.59
2023-02-03T22:03:50.188Z,103279.91
2023-02-03T22:06:19.485Z,103279.94
2023-02-03T22:08:51.455Z,103292.06
2023-02-03T22:11:19.507Z,103305.03
2023-02-03T22:13:47.335Z,103305.88
2023-02-03T22:16:17.053Z,103311.94
2023-02-03T22:18:45.117Z,103309.34
2023-02-03T22:21:11.754Z,103309.34
2023-02-03T22:23:39.134Z,103312.84
2023-02-03T22:26:06.939Z,103315.44
2023-02-03T22:28:34.122Z,103319.78
2023-02-03T22:31:01.093Z,103315.47
2023-02-03T22:33:27.595Z,103322.38
2023-02-03T22:35:54.029Z,103333.63
2023-02-03T22:38:20.485Z,103343.16
2023-02-03T22:40:46.954Z,103345.75
2023-02-03T22:43:13.438Z,103345.75
2023-02-03T22:45:39.958Z,103347.50
2023-02-03T22:48:06.732Z,103348.38
2023-02-03T22:50:36.803Z,103357.88
2023-02-03T22:53:04.684Z,103360.47
2023-02-03T22:55:31.565Z,103367.41
2023-02-03T22:57:59.119Z,103376.06
2023-02-03T23:00:26.153Z,103371.72
2023-02-03T23:02:52.653Z,103375.19
2023-02-03T23:05:19.683Z,103370.03
2023-02-03T23:07:46.708Z,103370.00
2023-02-03T23:10:19.458Z,103368.28
2023-02-03T23:12:45.988Z,103362.22
2023-02-03T23:15:13.324Z,103353.56
2023-02-03T23:17:40.266Z,103356.19
2023-02-03T23:20:08.046Z,103353.56
2023-02-03T23:22:34.910Z,103360.50
2023-02-03T23:25:02.494Z,103363.97
2023-02-03T23:27:28.980Z,103372.63
2023-02-03T23:29:55.470Z,103373.50
2023-02-03T23:32:22.011Z,103364.81
2023-02-03T23:35:06.769Z,103371.75
2023-02-03T23:37:33.331Z,103376.94
2023-02-03T23:40:00.405Z,103372.59
2023-02-03T23:42:26.983Z,103376.97
2023-02-03T23:44:53.400Z,103376.94
2023-02-03T23:47:19.841Z,103383.88
2023-02-03T23:49:46.285Z,103389.06
2023-02-03T23:52:12.760Z,103397.72
2023-02-03T23:54:39.271Z,103395.13
2023-02-03T23:57:05.786Z,103396.00
2023-02-03T23:59:32.201Z,103392.53
